sensor_id;sensor_type;location;lat;lon;timestamp;pressure;altitude;pressure_sealevel;temperature;humidity
20368;BME280;10343;52.402;9.796;2022-08-25T00:00:17;101431.28;;;21.03;60.75
20368;BME280;10343;52.402;9.796;2022-08-25T00:02:46;101428.69;;;21.02;60.64
20368;BME280;10343;52.402;9.796;2022-08-25T00:05:27;101435.19;;;20.98;61.39
20368;BME280;10343;52.402;9.796;2022-08-25T00:07:59;101443.44;;;20.95;61.10
20368;BME280;10343;52.402;9.796;2022-08-25T00:10:28;101438.22;;;20.92;61.41
20368;BME280;10343;52.402;9.796;2022-08-25T00:12:56;101433.84;;;20.89;61.54
20368;BME280;10343;52.402;9.796;2022-08-25T00:15:24;101434.88;;;20.86;61.63
20368;BME280;10343;52.402;9.796;2022-08-25T00:17:53;101436.81;;;20.84;61.61
20368;BME280;10343;52.402;9.796;2022-08-25T00:20:21;101438.69;;;20.82;61.89
20368;BME280;10343;52.402;9.796;2022-08-25T00:22:48;101438.88;;;20.79;62.08
20368;BME280;10343;52.402;9.796;2022-08-25T00:25:17;101438.97;;;20.78;62.11
20368;BME280;10343;52.402;9.796;2022-08-25T00:27:47;101443.50;;;20.77;62.12
20368;BME280;10343;52.402;9.796;2022-08-25T00:30:15;101442.88;;;20.72;62.57
20368;BME280;10343;52.402;9.796;2022-08-25T00:32:44;101440.34;;;20.69;63.17
20368;BME280;10343;52.402;9.796;2022-08-25T00:35:24;101446.69;;;20.68;63.26
20368;BME280;10343;52.402;9.796;2022-08-25T00:37:52;101441.56;;;20.62;63.63
20368;BME280;10343;52.402;9.796;2022-08-25T00:40:20;101443.22;;;20.64;63.39
20368;BME280;10343;52.402;9.796;2022-08-25T00:42:50;101446.97;;;20.62;63.79
20368;BME280;10343;52.402;9.796;2022-08-25T00:45:18;101441.75;;;20.59;64.06
20368;BME280;10343;52.402;9.796;2022-08-25T00:47:46;101430.97;;;20.59;64.21
20368;BME280;10343;52.402;9.796;2022-08-25T00:50:15;101432.16;;;20.53;64.52
20368;BME280;10343;52.402;9.796;2022-08-25T00:52:47;101435.59;;;20.57;64.14
20368;BME280;10343;52.402;9.796;2022-08-25T00:55:19;101438.59;;;20.50;64.95
20368;BME280;10343;52.402;9.796;2022-08-25T00:57:53;101440.34;;;20.51;64.77
20368;BME280;10343;52.402;9.796;2022-08-25T01:00:25;101446.66;;;20.50;64.98
20368;BME280;10343;52.402;9.796;2022-08-25T01:02:54;101439.78;;;20.45;65.16
20368;BME280;10343;52.402;9.796;2022-08-25T01:05:25;101436.22;;;20.44;65.27
20368;BME280;10343;52.402;9.796;2022-08-25T01:07:53;101437.34;;;20.40;65.59
20368;BME280;10343;52.402;9.796;2022-08-25T01:10:25;101428.63;;;20.35;66.34
20368;BME280;10343;52.402;9.796;2022-08-25T01:13:00;101428.81;;;20.32;66.60
20368;BME280;10343;52.402;9.796;2022-08-25T01:15:29;101430.69;;;20.30;66.30
20368;BME280;10343;52.402;9.796;2022-08-25T01:17:57;101429.28;;;20.23;67.29
20368;BME280;10343;52.402;9.796;2022-08-25T01:20:28;101434.50;;;20.26;66.85
20368;BME280;10343;52.402;9.796;2022-08-25T01:22:58;101425.94;;;20.17;67.50
20368;BME280;10343;52.402;9.796;2022-08-25T01:25:35;101429.66;;;20.15;67.14
20368;BME280;10343;52.402;9.796;2022-08-25T01:28:06;101428.88;;;20.13;67.29
20368;BME280;10343;52.402;9.796;2022-08-25T01:30:34;101434.34;;;20.11;66.93
20368;BME280;10343;52.402;9.796;2022-08-25T01:33:03;101440.34;;;19.99;67.67
20368;BME280;10343;52.402;9.796;2022-08-25T01:35:32;101438.59;;;19.98;67.59
20368;BME280;10343;52.402;9.796;2022-08-25T01:38:04;101433.13;;;19.99;67.61
20368;BME280;10343;52.402;9.796;2022-08-25T01:40:34;101434.00;;;20.00;67.65
20368;BME280;10343;52.402;9.796;2022-08-25T01:43:07;101427.53;;;19.87;68.32
20368;BME280;10343;52.402;9.796;2022-08-25T01:45:41;101441.19;;;19.82;68.68
20368;BME280;10343;52.402;9.796;2022-08-25T01:48:10;101432.00;;;19.86;68.92
20368;BME280;10343;52.402;9.796;2022-08-25T01:50:40;101433.03;;;19.83;69.14
20368;BME280;10343;52.402;9.796;2022-08-25T01:53:12;101426.34;;;19.73;70.07
20368;BME280;10343;52.402;9.796;2022-08-25T01:55:41;101436.09;;;19.76;70.06
20368;BME280;10343;52.402;9.796;2022-08-25T01:58:21;101435.53;;;19.69;70.83
20368;BME280;10343;52.402;9.796;2022-08-25T02:00:50;101428.25;;;19.71;70.90
20368;BME280;10343;52.402;9.796;2022-08-25T02:03:20;101430.97;;;19.71;70.48
20368;BME280;10343;52.402;9.796;2022-08-25T02:05:48;101425.69;;;19.68;71.12
20368;BME280;10343;52.402;9.796;2022-08-25T02:08:18;101423.97;;;19.67;71.37
20368;BME280;10343;52.402;9.796;2022-08-25T02:10:46;101418.59;;;19.67;71.82
20368;BME280;10343;52.402;9.796;2022-08-25T02:13:14;101424.03;;;19.65;72.37
20368;BME280;10343;52.402;9.796;2022-08-25T02:15:45;101420.81;;;19.59;73.42
20368;BME280;10343;52.402;9.796;2022-08-25T02:18:14;101423.34;;;19.62;73.52
20368;BME280;10343;52.402;9.796;2022-08-25T02:20:43;101420.00;;;19.57;74.21
20368;BME280;10343;52.402;9.796;2022-08-25T02:23:11;101422.03;;;19.51;74.63
20368;BME280;10343;52.402;9.796;2022-08-25T02:25:40;101416.53;;;19.55;74.01
20368;BME280;10343;52.402;9.796;2022-08-25T02:28:09;101421.94;;;19.53;74.87
20368;BME280;10343;52.402;9.796;2022-08-25T02:30:38;101420.75;;;19.41;75.88
20368;BME280;10343;52.402;9.796;2022-08-25T02:33:07;101420.75;;;19.41;75.90
20368;BME280;10343;52.402;9.796;2022-08-25T02:35:35;101416.16;;;19.43;76.20
20368;BME280;10343;52.402;9.796;2022-08-25T02:38:04;101414.56;;;19.39;76.06
20368;BME280;10343;52.402;9.796;2022-08-25T02:40:32;101415.97;;;19.29;77.38
20368;BME280;10343;52.402;9.796;2022-08-25T02:43:02;101420.91;;;19.38;76.98
20368;BME280;10343;52.402;9.796;2022-08-25T02:45:31;101412.75;;;19.40;76.88
20368;BME280;10343;52.402;9.796;2022-08-25T02:47:59;101418.13;;;19.40;76.96
20368;BME280;10343;52.402;9.796;2022-08-25T02:50:27;101416.47;;;19.37;77.83
20368;BME280;10343;52.402;9.796;2022-08-25T02:52:55;101416.66;;;19.32;78.12
20368;BME280;10343;52.402;9.796;2022-08-25T02:55:23;101417.72;;;19.30;78.65
20368;BME280;10343;52.402;9.796;2022-08-25T02:57:51;101417.75;;;19.28;77.98
20368;BME280;10343;52.402;9.796;2022-08-25T03:00:20;101419.75;;;19.25;79.16
20368;BME280;10343;52.402;9.796;2022-08-25T03:02:48;101418.31;;;19.17;79.01
20368;BME280;10343;52.402;9.796;2022-08-25T03:05:16;101418.16;;;19.21;78.96
20368;BME280;10343;52.402;9.796;2022-08-25T03:07:44;101423.38;;;19.24;78.65
20368;BME280;10343;52.402;9.796;2022-08-25T03:10:15;101415.53;;;19.19;78.62
20368;BME280;10343;52.402;9.796;2022-08-25T03:12:44;101418.16;;;19.21;78.94
20368;BME280;10343;52.402;9.796;2022-08-25T03:15:15;101413.72;;;19.20;78.53
20368;BME280;10343;52.402;9.796;2022-08-25T03:17:45;101421.84;;;19.18;78.08
20368;BME280;10343;52.402;9.796;2022-08-25T03:20:16;101417.41;;;19.17;78.01
20368;BME280;10343;52.402;9.796;2022-08-25T03:22:44;101416.72;;;19.13;78.00
20368;BME280;10343;52.402;9.796;2022-08-25T03:25:12;101419.47;;;19.12;78.76
20368;BME280;10343;52.402;9.796;2022-08-25T03:27:57;101422.19;;;19.10;79.25
20368;BME280;10343;52.402;9.796;2022-08-25T03:30:26;101421.56;;;19.05;79.77
20368;BME280;10343;52.402;9.796;2022-08-25T03:32:56;101420.75;;;19.03;79.89
20368;BME280;10343;52.402;9.796;2022-08-25T03:35:24;101423.44;;;19.03;79.97
20368;BME280;10343;52.402;9.796;2022-08-25T03:37:54;101419.97;;;19.01;79.19
20368;BME280;10343;52.402;9.796;2022-08-25T03:40:23;101419.16;;;18.99;79.35
20368;BME280;10343;52.402;9.796;2022-08-25T03:42:52;101418.44;;;18.95;80.43
20368;BME280;10343;52.402;9.796;2022-08-25T03:45:21;101421.19;;;18.94;80.72
20368;BME280;10343;52.402;9.796;2022-08-25T03:47:51;101420.47;;;18.90;81.02
20368;BME280;10343;52.402;9.796;2022-08-25T03:50:22;101419.56;;;18.90;81.22
20368;BME280;10343;52.402;9.796;2022-08-25T03:52:51;101417.94;;;18.85;82.04
20368;BME280;10343;52.402;9.796;2022-08-25T03:55:20;101415.25;;;18.85;82.26
20368;BME280;10343;52.402;9.796;2022-08-25T03:57:48;101416.31;;;18.83;82.44
20368;BME280;10343;52.402;9.796;2022-08-25T04:00:16;101405.59;;;18.81;82.51
20368;BME280;10343;52.402;9.796;2022-08-25T04:02:45;101415.47;;;18.81;83.01
20368;BME280;10343;52.402;9.796;2022-08-25T04:05:13;101411.28;;;18.75;83.96
20368;BME280;10343;52.402;9.796;2022-08-25T04:07:42;101418.50;;;18.73;84.71
20368;BME280;10343;52.402;9.796;2022-08-25T04:10:10;101418.50;;;18.73;84.75
20368;BME280;10343;52.402;9.796;2022-08-25T04:12:39;101427.53;;;18.72;84.53
20368;BME280;10343;52.402;9.796;2022-08-25T04:15:08;101425.94;;;18.68;85.25
20368;BME280;10343;52.402;9.796;2022-08-25T04:17:37;101429.41;;;18.70;85.63
20368;BME280;10343;52.402;9.796;2022-08-25T04:20:07;101420.56;;;18.68;85.87
20368;BME280;10343;52.402;9.796;2022-08-25T04:22:36;101428.63;;;18.68;86.12
20368;BME280;10343;52.402;9.796;2022-08-25T04:25:11;101429.56;;;18.67;86.43
20368;BME280;10343;52.402;9.796;2022-08-25T04:27:40;101426.03;;;18.65;87.31
20368;BME280;10343;52.402;9.796;2022-08-25T04:30:09;101426.94;;;18.65;88.04
20368;BME280;10343;52.402;9.796;2022-08-25T04:32:37;101422.56;;;18.63;88.77
20368;BME280;10343;52.402;9.796;2022-08-25T04:35:05;101418.13;;;18.62;88.99
20368;BME280;10343;52.402;9.796;2022-08-25T04:37:34;101419.88;;;18.63;89.86
20368;BME280;10343;52.402;9.796;2022-08-25T04:40:03;101414.00;;;18.55;89.64
20368;BME280;10343;52.402;9.796;2022-08-25T04:42:33;101417.34;;;18.60;90.39
20368;BME280;10343;52.402;9.796;2022-08-25T04:45:00;101413.69;;;18.61;90.61
20368;BME280;10343;52.402;9.796;2022-08-25T04:47:29;101416.34;;;18.62;91.27
20368;BME280;10343;52.402;9.796;2022-08-25T04:49:57;101416.28;;;18.64;90.49
20368;BME280;10343;52.402;9.796;2022-08-25T04:52:25;101410.91;;;18.64;91.20
20368;BME280;10343;52.402;9.796;2022-08-25T04:54:53;101408.06;;;18.67;91.13
20368;BME280;10343;52.402;9.796;2022-08-25T04:57:22;101406.31;;;18.66;91.30
20368;BME280;10343;52.402;9.796;2022-08-25T04:59:51;101406.16;;;18.69;91.91
20368;BME280;10343;52.402;9.796;2022-08-25T05:02:19;101408.06;;;18.67;92.45
20368;BME280;10343;52.402;9.796;2022-08-25T05:04:47;101411.75;;;18.64;93.07
20368;BME280;10343;52.402;9.796;2022-08-25T05:07:15;101414.03;;;18.74;92.78
20368;BME280;10343;52.402;9.796;2022-08-25T05:09:43;101420.19;;;18.76;92.99
20368;BME280;10343;52.402;9.796;2022-08-25T05:12:11;101425.22;;;18.83;92.75
20368;BME280;10343;52.402;9.796;2022-08-25T05:14:39;101420.72;;;18.84;92.49
20368;BME280;10343;52.402;9.796;2022-08-25T05:17:08;101426.00;;;18.85;91.92
20368;BME280;10343;52.402;9.796;2022-08-25T05:19:36;101419.56;;;18.90;92.42
20368;BME280;10343;52.402;9.796;2022-08-25T05:22:04;101419.31;;;18.96;91.79
20368;BME280;10343;52.402;9.796;2022-08-25T05:24:32;101421.91;;;18.97;92.05
20368;BME280;10343;52.402;9.796;2022-08-25T05:27:00;101430.81;;;18.99;92.31
20368;BME280;10343;52.402;9.796;2022-08-25T05:29:29;101424.38;;;19.02;91.53
20368;BME280;10343;52.402;9.796;2022-08-25T05:31:57;101424.19;;;19.07;91.88
20368;BME280;10343;52.402;9.796;2022-08-25T05:34:26;101428.41;;;19.12;92.01
20368;BME280;10343;52.402;9.796;2022-08-25T05:36:55;101427.31;;;19.16;92.13
20368;BME280;10343;52.402;9.796;2022-08-25T05:39:25;101417.25;;;19.20;92.64
20368;BME280;10343;52.402;9.796;2022-08-25T05:41:57;101415.31;;;19.24;92.17
20368;BME280;10343;52.402;9.796;2022-08-25T05:44:25;101411.59;;;19.26;93.05
20368;BME280;10343;52.402;9.796;2022-08-25T05:46:53;101413.94;;;19.34;92.65
20368;BME280;10343;52.402;9.796;2022-08-25T05:49:21;101415.81;;;19.32;93.09
20368;BME280;10343;52.402;9.796;2022-08-25T05:51:50;101411.16;;;19.35;93.18
20368;BME280;10343;52.402;9.796;2022-08-25T05:54:20;101402.63;;;19.45;92.50
20368;BME280;10343;52.402;9.796;2022-08-25T05:56:48;101404.00;;;19.54;92.10
20368;BME280;10343;52.402;9.796;2022-08-25T05:59:16;101400.50;;;19.51;91.66
20368;BME280;10343;52.402;9.796;2022-08-25T06:01:44;101403.19;;;19.51;92.65
20368;BME280;10343;52.402;9.796;2022-08-25T06:04:30;101398.97;;;19.65;92.01
20368;BME280;10343;52.402;9.796;2022-08-25T06:06:59;101395.00;;;19.72;91.41
20368;BME280;10343;52.402;9.796;2022-08-25T06:09:27;101398.34;;;19.77;91.29
20368;BME280;10343;52.402;9.796;2022-08-25T06:11:55;101391.72;;;19.84;90.77
20368;BME280;10343;52.402;9.796;2022-08-25T06:14:23;101394.34;;;19.86;90.62
20368;BME280;10343;52.402;9.796;2022-08-25T06:16:51;101390.53;;;19.90;90.59
20368;BME280;10343;52.402;9.796;2022-08-25T06:19:20;101389.22;;;19.99;90.28
20368;BME280;10343;52.402;9.796;2022-08-25T06:21:52;101387.31;;;20.01;90.47
20368;BME280;10343;52.402;9.796;2022-08-25T06:24:22;101381.75;;;20.04;89.74
20368;BME280;10343;52.402;9.796;2022-08-25T06:26:50;101388.59;;;20.11;90.09
20368;BME280;10343;52.402;9.796;2022-08-25T06:29:18;101391.88;;;20.16;90.01
20368;BME280;10343;52.402;9.796;2022-08-25T06:31:46;101395.38;;;20.18;89.47
20368;BME280;10343;52.402;9.796;2022-08-25T06:34:18;101402.19;;;20.26;89.75
20368;BME280;10343;52.402;9.796;2022-08-25T06:36:50;101408.13;;;20.32;89.52
20368;BME280;10343;52.402;9.796;2022-08-25T06:39:19;101403.19;;;20.41;89.21
20368;BME280;10343;52.402;9.796;2022-08-25T06:41:51;101403.81;;;20.46;88.27
20368;BME280;10343;52.402;9.796;2022-08-25T06:44:19;101393.75;;;20.49;88.91
20368;BME280;10343;52.402;9.796;2022-08-25T06:46:47;101393.44;;;20.56;89.10
20368;BME280;10343;52.402;9.796;2022-08-25T06:49:15;101398.47;;;20.62;88.27
20368;BME280;10343;52.402;9.796;2022-08-25T06:51:43;101392.78;;;20.68;88.40
20368;BME280;10343;52.402;9.796;2022-08-25T06:54:11;101386.28;;;20.72;88.54
20368;BME280;10343;52.402;9.796;2022-08-25T06:56:41;101377.69;;;20.81;87.75
20368;BME280;10343;52.402;9.796;2022-08-25T06:59:10;101372.66;;;20.91;87.08
20368;BME280;10343;52.402;9.796;2022-08-25T07:01:38;101373.97;;;21.00;87.26
20368;BME280;10343;52.402;9.796;2022-08-25T07:04:06;101376.47;;;21.03;86.79
20368;BME280;10343;52.402;9.796;2022-08-25T07:06:39;101375.44;;;21.06;86.77
20368;BME280;10343;52.402;9.796;2022-08-25T07:09:08;101376.81;;;21.13;86.20
20368;BME280;10343;52.402;9.796;2022-08-25T07:11:37;101377.53;;;21.16;85.95
20368;BME280;10343;52.402;9.796;2022-08-25T07:14:07;101375.97;;;21.28;84.98
20368;BME280;10343;52.402;9.796;2022-08-25T07:16:38;101380.06;;;21.35;84.55
20368;BME280;10343;52.402;9.796;2022-08-25T07:19:11;101374.38;;;21.40;83.98
20368;BME280;10343;52.402;9.796;2022-08-25T07:21:41;101374.91;;;21.47;84.22
20368;BME280;10343;52.402;9.796;2022-08-25T07:24:12;101373.69;;;21.52;83.49
20368;BME280;10343;52.402;9.796;2022-08-25T07:26:41;101376.63;;;21.64;82.79
20368;BME280;10343;52.402;9.796;2022-08-25T07:29:14;101377.03;;;21.72;82.74
20368;BME280;10343;52.402;9.796;2022-08-25T07:31:44;101378.50;;;21.78;82.36
20368;BME280;10343;52.402;9.796;2022-08-25T07:34:12;101368.41;;;21.81;81.93
20368;BME280;10343;52.402;9.796;2022-08-25T07:36:57;101375.06;;;21.90;81.52
20368;BME280;10343;52.402;9.796;2022-08-25T07:39:26;101374.44;;;22.01;81.31
20368;BME280;10343;52.402;9.796;2022-08-25T07:41:54;101378.34;;;22.11;81.22
20368;BME280;10343;52.402;9.796;2022-08-25T07:44:23;101384.31;;;22.16;80.89
20368;BME280;10343;52.402;9.796;2022-08-25T07:47:13;101392.84;;;22.25;79.64
20368;BME280;10343;52.402;9.796;2022-08-25T07:49:41;101388.78;;;22.32;79.26
20368;BME280;10343;52.402;9.796;2022-08-25T07:52:09;101386.69;;;22.37;79.50
20368;BME280;10343;52.402;9.796;2022-08-25T07:54:37;101390.84;;;22.43;79.32
20368;BME280;10343;52.402;9.796;2022-08-25T07:57:07;101393.25;;;22.47;79.07
20368;BME280;10343;52.402;9.796;2022-08-25T07:59:38;101392.50;;;22.60;78.67
20368;BME280;10343;52.402;9.796;2022-08-25T08:02:08;101392.03;;;22.67;78.12
20368;BME280;10343;52.402;9.796;2022-08-25T08:04:47;101395.00;;;22.77;77.19
20368;BME280;10343;52.402;9.796;2022-08-25T08:07:17;101388.03;;;22.87;77.43
20368;BME280;10343;52.402;9.796;2022-08-25T08:09:45;101388.63;;;22.93;77.19
20368;BME280;10343;52.402;9.796;2022-08-25T08:12:26;101383.69;;;22.99;76.76
20368;BME280;10343;52.402;9.796;2022-08-25T08:14:54;101369.66;;;23.07;76.34
20368;BME280;10343;52.402;9.796;2022-08-25T08:17:22;101381.66;;;23.17;75.90
20368;BME280;10343;52.402;9.796;2022-08-25T08:19:51;101382.00;;;23.26;75.76
20368;BME280;10343;52.402;9.796;2022-08-25T08:22:20;101370.66;;;23.33;75.19
20368;BME280;10343;52.402;9.796;2022-08-25T08:24:48;101380.03;;;23.42;74.71
20368;BME280;10343;52.402;9.796;2022-08-25T08:27:22;101367.72;;;23.51;74.77
20368;BME280;10343;52.402;9.796;2022-08-25T08:29:50;101373.38;;;23.61;74.70
20368;BME280;10343;52.402;9.796;2022-08-25T08:32:19;101364.63;;;23.70;73.40
20368;BME280;10343;52.402;9.796;2022-08-25T08:35:03;101359.34;;;23.81;73.14
20368;BME280;10343;52.402;9.796;2022-08-25T08:37:33;101355.81;;;23.94;72.74
20368;BME280;10343;52.402;9.796;2022-08-25T08:40:07;101352.50;;;24.03;72.24
20368;BME280;10343;52.402;9.796;2022-08-25T08:42:55;101352.19;;;24.20;71.11
20368;BME280;10343;52.402;9.796;2022-08-25T08:45:35;101359.63;;;24.30;70.12
20368;BME280;10343;52.402;9.796;2022-08-25T08:48:31;101352.72;;;24.38;70.33
20368;BME280;10343;52.402;9.796;2022-08-25T08:51:08;101354.66;;;24.49;70.25
20368;BME280;10343;52.402;9.796;2022-08-25T08:53:44;101350.22;;;24.61;69.30
20368;BME280;10343;52.402;9.796;2022-08-25T08:56:19;101344.50;;;24.66;69.18
20368;BME280;10343;52.402;9.796;2022-08-25T08:58:58;101342.53;;;24.68;69.54
20368;BME280;10343;52.402;9.796;2022-08-25T09:01:33;101341.09;;;24.75;69.77
20368;BME280;10343;52.402;9.796;2022-08-25T09:04:07;101332.28;;;24.84;68.55
20368;BME280;10343;52.402;9.796;2022-08-25T09:06:42;101338.13;;;24.91;68.45
20368;BME280;10343;52.402;9.796;2022-08-25T09:09:15;101326.53;;;25.13;67.97
20368;BME280;10343;52.402;9.796;2022-08-25T09:11:56;101325.16;;;25.32;66.84
20368;BME280;10343;52.402;9.796;2022-08-25T09:14:48;101327.31;;;25.39;66.83
20368;BME280;10343;52.402;9.796;2022-08-25T09:17:40;101314.53;;;25.41;65.91
20368;BME280;10343;52.402;9.796;2022-08-25T09:23:20;101323.56;;;25.53;65.04
20368;BME280;10343;52.402;9.796;2022-08-25T09:25:58;101317.69;;;25.71;64.33
20368;BME280;10343;52.402;9.796;2022-08-25T09:28:30;101312.56;;;25.90;62.91
20368;BME280;10343;52.402;9.796;2022-08-25T09:31:01;101307.09;;;26.15;62.43
20368;BME280;10343;52.402;9.796;2022-08-25T09:33:32;101306.59;;;26.43;61.01
20368;BME280;10343;52.402;9.796;2022-08-25T09:36:02;101305.47;;;26.46;60.37
20368;BME280;10343;52.402;9.796;2022-08-25T09:38:36;101310.41;;;26.52;60.75
20368;BME280;10343;52.402;9.796;2022-08-25T09:41:06;101314.75;;;26.55;60.42
20368;BME280;10343;52.402;9.796;2022-08-25T09:43:40;101305.97;;;26.40;60.16
20368;BME280;10343;52.402;9.796;2022-08-25T09:46:11;101305.34;;;26.59;59.19
20368;BME280;10343;52.402;9.796;2022-08-25T09:48:45;101290.41;;;26.76;58.28
20368;BME280;10343;52.402;9.796;2022-08-25T09:51:25;101294.56;;;27.03;57.77
20368;BME280;10343;52.402;9.796;2022-08-25T09:53:58;101295.09;;;26.85;58.04
20368;BME280;10343;52.402;9.796;2022-08-25T09:56:48;101282.91;;;27.01;57.70
20368;BME280;10343;52.402;9.796;2022-08-25T09:59:21;101280.72;;;26.83;57.11
20368;BME280;10343;52.402;9.796;2022-08-25T10:02:03;101276.88;;;26.97;57.19
20368;BME280;10343;52.402;9.796;2022-08-25T10:04:33;101280.84;;;27.25;56.19
20368;BME280;10343;52.402;9.796;2022-08-25T10:07:18;101275.13;;;27.28;56.55
20368;BME280;10343;52.402;9.796;2022-08-25T10:09:52;101276.13;;;27.39;55.83
20368;BME280;10343;52.402;9.796;2022-08-25T10:12:24;101273.81;;;27.55;55.40
20368;BME280;10343;52.402;9.796;2022-08-25T10:14:56;101276.72;;;27.42;55.62
20368;BME280;10343;52.402;9.796;2022-08-25T10:17:26;101269.28;;;27.44;55.26
20368;BME280;10343;52.402;9.796;2022-08-25T10:20:13;101266.16;;;27.49;54.87
20368;BME280;10343;52.402;9.796;2022-08-25T10:22:43;101267.91;;;27.50;54.29
20368;BME280;10343;52.402;9.796;2022-08-25T10:25:21;101252.22;;;27.63;54.99
20368;BME280;10343;52.402;9.796;2022-08-25T10:28:02;101254.78;;;27.86;54.58
20368;BME280;10343;52.402;9.796;2022-08-25T10:30:47;101251.69;;;27.70;54.30
20368;BME280;10343;52.402;9.796;2022-08-25T10:33:21;101242.78;;;27.68;55.26
20368;BME280;10343;52.402;9.796;2022-08-25T10:35:57;101239.38;;;27.75;54.52
20368;BME280;10343;52.402;9.796;2022-08-25T10:38:37;101237.63;;;27.32;54.99
20368;BME280;10343;52.402;9.796;2022-08-25T10:41:32;101230.06;;;27.47;55.64
20368;BME280;10343;52.402;9.796;2022-08-25T10:44:12;101218.72;;;27.73;54.96
20368;BME280;10343;52.402;9.796;2022-08-25T10:47:19;101216.25;;;27.91;54.12
20368;BME280;10343;52.402;9.796;2022-08-25T10:49:54;101203.31;;;27.83;54.51
20368;BME280;10343;52.402;9.796;2022-08-25T10:52:31;101201.91;;;27.89;53.59
20368;BME280;10343;52.402;9.796;2022-08-25T10:55:12;101194.59;;;28.20;53.75
20368;BME280;10343;52.402;9.796;2022-08-25T10:57:49;101194.53;;;28.01;53.42
20368;BME280;10343;52.402;9.796;2022-08-25T11:00:22;101193.06;;;27.96;53.43
20368;BME280;10343;52.402;9.796;2022-08-25T11:03:21;101186.53;;;28.09;52.77
20368;BME280;10343;52.402;9.796;2022-08-25T11:06:04;101187.53;;;28.08;51.77
20368;BME280;10343;52.402;9.796;2022-08-25T11:08:37;101177.97;;;27.92;53.21
20368;BME280;10343;52.402;9.796;2022-08-25T11:11:11;101168.50;;;27.66;53.02
20368;BME280;10343;52.402;9.796;2022-08-25T11:13:52;101170.34;;;27.86;52.42
20368;BME280;10343;52.402;9.796;2022-08-25T11:16:32;101174.25;;;28.24;51.51
20368;BME280;10343;52.402;9.796;2022-08-25T11:19:09;101154.75;;;28.48;51.35
20368;BME280;10343;52.402;9.796;2022-08-25T11:21:48;101163.72;;;28.70;50.32
20368;BME280;10343;52.402;9.796;2022-08-25T11:24:33;101159.41;;;28.77;50.83
20368;BME280;10343;52.402;9.796;2022-08-25T11:27:10;101154.84;;;28.68;50.75
20368;BME280;10343;52.402;9.796;2022-08-25T11:29:46;101148.41;;;28.19;51.93
20368;BME280;10343;52.402;9.796;2022-08-25T11:32:17;101146.25;;;28.22;52.01
20368;BME280;10343;52.402;9.796;2022-08-25T11:34:48;101147.28;;;28.31;52.14
20368;BME280;10343;52.402;9.796;2022-08-25T11:37:21;101150.44;;;28.36;51.30
20368;BME280;10343;52.402;9.796;2022-08-25T11:40:13;101145.25;;;28.23;51.33
20368;BME280;10343;52.402;9.796;2022-08-25T11:42:59;101138.94;;;28.13;51.94
20368;BME280;10343;52.402;9.796;2022-08-25T11:45:46;101143.25;;;28.16;52.28
20368;BME280;10343;52.402;9.796;2022-08-25T11:48:33;101137.38;;;28.30;51.60
20368;BME280;10343;52.402;9.796;2022-08-25T11:51:04;101137.81;;;28.25;51.61
20368;BME280;10343;52.402;9.796;2022-08-25T11:53:36;101132.75;;;28.11;52.15
20368;BME280;10343;52.402;9.796;2022-08-25T11:56:09;101129.84;;;28.03;52.08
20368;BME280;10343;52.402;9.796;2022-08-25T11:58:44;101120.47;;;27.95;52.79
20368;BME280;10343;52.402;9.796;2022-08-25T12:01:59;101110.25;;;28.19;52.02
20368;BME280;10343;52.402;9.796;2022-08-25T12:04:35;101114.00;;;28.57;51.42
20368;BME280;10343;52.402;9.796;2022-08-25T12:07:23;101117.19;;;28.72;50.35
20368;BME280;10343;52.402;9.796;2022-08-25T12:10:13;101112.00;;;28.98;49.21
20368;BME280;10343;52.402;9.796;2022-08-25T12:12:58;101120.91;;;29.10;48.27
20368;BME280;10343;52.402;9.796;2022-08-25T12:15:28;101117.75;;;29.05;47.50
20368;BME280;10343;52.402;9.796;2022-08-25T12:18:12;101112.28;;;29.05;48.08
20368;BME280;10343;52.402;9.796;2022-08-25T12:21:10;101103.78;;;29.08;47.59
20368;BME280;10343;52.402;9.796;2022-08-25T12:23:42;101104.28;;;28.84;48.67
20368;BME280;10343;52.402;9.796;2022-08-25T12:26:16;101106.13;;;29.03;48.26
20368;BME280;10343;52.402;9.796;2022-08-25T12:28:55;101104.81;;;29.17;47.99
20368;BME280;10343;52.402;9.796;2022-08-25T12:32:03;101105.38;;;29.30;46.06
20368;BME280;10343;52.402;9.796;2022-08-25T12:37:53;101096.13;;;29.51;45.18
20368;BME280;10343;52.402;9.796;2022-08-25T12:40:26;101088.47;;;29.54;45.91
20368;BME280;10343;52.402;9.796;2022-08-25T12:43:20;101088.59;;;29.90;46.12
20368;BME280;10343;52.402;9.796;2022-08-25T12:45:52;101090.78;;;30.14;44.61
20368;BME280;10343;52.402;9.796;2022-08-25T12:48:54;101076.06;;;29.97;44.17
20368;BME280;10343;52.402;9.796;2022-08-25T12:51:26;101085.88;;;29.90;44.29
20368;BME280;10343;52.402;9.796;2022-08-25T12:53:59;101076.34;;;29.94;43.89
20368;BME280;10343;52.402;9.796;2022-08-25T12:56:44;101083.44;;;29.59;44.87
20368;BME280;10343;52.402;9.796;2022-08-25T12:59:16;101078.44;;;29.45;45.55
20368;BME280;10343;52.402;9.796;2022-08-25T13:02:08;101074.81;;;29.54;46.32
20368;BME280;10343;52.402;9.796;2022-08-25T13:05:04;101074.22;;;29.60;45.98
20368;BME280;10343;52.402;9.796;2022-08-25T13:07:54;101071.38;;;29.52;45.67
20368;BME280;10343;52.402;9.796;2022-08-25T13:10:38;101071.19;;;29.26;45.97
20368;BME280;10343;52.402;9.796;2022-08-25T13:13:15;101056.22;;;29.20;46.29
20368;BME280;10343;52.402;9.796;2022-08-25T13:15:57;101059.81;;;29.30;46.04
20368;BME280;10343;52.402;9.796;2022-08-25T13:18:27;101046.19;;;29.21;46.27
20368;BME280;10343;52.402;9.796;2022-08-25T13:21:04;101045.28;;;29.40;45.62
20368;BME280;10343;52.402;9.796;2022-08-25T13:23:36;101048.19;;;29.19;46.04
20368;BME280;10343;52.402;9.796;2022-08-25T13:26:05;101046.22;;;29.11;46.16